createdAt,value
2023-01-20T00:00:46.595Z,31
2023-01-20T00:10:53.145Z,29
2023-01-20T00:21:00.606Z,30
2023-01-20T00:31:07.614Z,26
2023-01-20T00:41:14.308Z,30
2023-01-20T00:51:19.579Z,23
2023-01-20T01:01:25.318Z,19
2023-01-20T01:11:30.847Z,23
2023-01-20T01:21:36.679Z,40
2023-01-20T01:31:42.509Z,5
2023-01-20T01:41:47.616Z,6
2023-01-20T01:51:54.142Z,4
2023-01-20T02:02:00.285Z,4
2023-01-20T02:12:05.434Z,4
2023-01-20T02:22:12.430Z,7
2023-01-20T02:32:17.773Z,5
2023-01-20T02:42:22.204Z,5
2023-01-20T02:52:28.626Z,4
2023-01-20T03:02:34.918Z,6
2023-01-20T03:12:40.861Z,4
2023-01-20T03:22:45.914Z,6
2023-01-20T03:32:52.329Z,7
2023-01-20T03:42:56.337Z,7
2023-01-20T03:53:23.971Z,6
2023-01-20T04:03:16.941Z,5
2023-01-20T04:13:23.399Z,5
2023-01-20T04:23:28.568Z,6
2023-01-20T04:33:33.893Z,8
2023-01-20T04:43:41.152Z,4
2023-01-20T04:53:47.922Z,4
2023-01-20T05:03:55.299Z,4
2023-01-20T05:14:00.667Z,7
2023-01-20T05:24:08.366Z,4
2023-01-20T05:34:13.732Z,5
2023-01-20T05:44:22.316Z,5
2023-01-20T05:54:26.666Z,7
2023-01-20T06:04:33.840Z,7
2023-01-20T06:14:37.496Z,8
2023-01-20T06:24:41.413Z,9
2023-01-20T06:34:47.100Z,12
2023-01-20T06:44:54.037Z,9
2023-01-20T06:54:58.651Z,11
2023-01-20T07:05:04.810Z,22
2023-01-20T07:15:12.726Z,47
2023-01-20T07:25:18.771Z,72
2023-01-20T07:35:26.284Z,27
2023-01-20T07:45:29.378Z,5
2023-01-20T07:55:37.507Z,6
2023-01-20T08:05:42.242Z,7
2023-01-20T08:15:47.577Z,8
2023-01-20T08:25:53.791Z,5
2023-01-20T08:35:59.169Z,7
2023-01-20T08:46:03.699Z,6
2023-01-20T08:56:08.599Z,6
2023-01-20T09:06:14.627Z,7
2023-01-20T09:16:21.353Z,6
2023-01-20T09:26:35.560Z,6
2023-01-20T09:36:32.342Z,9
2023-01-20T09:46:40.098Z,10
2023-01-20T09:56:44.707Z,8
2023-01-20T10:06:51.904Z,10
2023-01-20T10:16:59.009Z,5
2023-01-20T10:27:03.453Z,8
2023-01-20T10:37:08.932Z,8
2023-01-20T10:47:14.897Z,7
2023-01-20T10:57:20.249Z,7
2023-01-20T11:07:24.744Z,6
2023-01-20T11:17:28.761Z,6
2023-01-20T11:27:34.980Z,7
2023-01-20T11:37:40.535Z,9
2023-01-20T11:47:45.761Z,6
2023-01-20T11:57:49.786Z,7
2023-01-20T12:07:55.009Z,8
2023-01-20T12:18:00.871Z,5
2023-01-20T12:28:08.031Z,4
2023-01-20T12:38:11.376Z,4
2023-01-20T12:48:16.265Z,5
2023-01-20T12:58:21.830Z,6
2023-01-20T13:08:29.060Z,5
2023-01-20T13:18:35.169Z,6
2023-01-20T13:28:41.209Z,4
2023-01-20T13:38:47.248Z,6
2023-01-20T13:48:53.079Z,5
2023-01-20T13:58:56.778Z,6
2023-01-20T14:09:02.932Z,6
2023-01-20T14:19:08.987Z,8
2023-01-20T14:29:15.784Z,9
2023-01-20T14:39:40.493Z,10
2023-01-20T14:49:33.284Z,10
2023-01-20T14:59:38.689Z,11
2023-01-20T15:09:53.382Z,11
2023-01-20T15:19:49.668Z,14
2023-01-20T15:29:56.593Z,11
2023-01-20T15:40:03.132Z,12
2023-01-20T15:50:07.262Z,12
2023-01-20T16:00:13.058Z,12
2023-01-20T16:10:19.618Z,14
2023-01-20T16:20:25.119Z,14
2023-01-20T16:30:30.971Z,18
2023-01-20T16:40:37.843Z,18
2023-01-20T16:50:43.183Z,20
2023-01-20T17:00:49.780Z,18
2023-01-20T17:10:51.758Z,19
2023-01-20T17:20:58.418Z,16
2023-01-20T17:31:08.334Z,17
2023-01-20T17:41:07.973Z,19
2023-01-20T17:51:14.142Z,16
2023-01-20T18:01:18.539Z,18
2023-01-20T18:11:22.370Z,16
2023-01-20T18:21:27.797Z,18
2023-01-20T18:31:35.839Z,19
2023-01-20T18:41:41.851Z,16
2023-01-20T18:51:47.954Z,18
2023-01-20T19:01:53.438Z,16
2023-01-20T19:11:56.806Z,15
2023-01-20T19:22:03.017Z,18
2023-01-20T19:32:08.361Z,18
2023-01-20T19:42:14.743Z,21
2023-01-20T19:52:21.625Z,17
2023-01-20T20:02:25.782Z,18
2023-01-20T20:12:31.149Z,19
2023-01-20T20:22:36.463Z,18
2023-01-20T20:32:41.403Z,19
2023-01-20T20:42:46.471Z,20
2023-01-20T20:52:50.814Z,22
2023-01-20T21:02:55.345Z,19
2023-01-20T21:12:59.754Z,18
2023-01-20T21:23:04.978Z,19
2023-01-20T21:33:09.381Z,20
2023-01-20T21:43:15.131Z,19
2023-01-20T21:53:20.497Z,17
2023-01-20T22:03:27.249Z,20
2023-01-20T22:13:34.410Z,20
2023-01-20T22:23:38.477Z,22
2023-01-20T22:33:44.590Z,21
2023-01-20T22:43:51.593Z,25
2023-01-20T22:53:56.152Z,22
2023-01-20T23:04:01.435Z,22
2023-01-20T23:14:07.261Z,23
2023-01-20T23:24:12.891Z,25
2023-01-20T23:34:19.949Z,25
2023-01-20T23:44:22.527Z,27
2023-01-20T23:54:27.550Z,24
